sensor_id;sensor_type;location;lat;lon;timestamp;pressure;altitude;pressure_sealevel;temperature
71640;BMP280;60912;48.968;10.124;2023-06-24T00:02:13;97517.94;;;19.31
71640;BMP280;60912;48.968;10.124;2023-06-24T00:04:39;97516.63;;;19.32
71640;BMP280;60912;48.968;10.124;2023-06-24T00:07:04;97513.22;;;19.24
71640;BMP280;60912;48.968;10.124;2023-06-24T00:09:30;97513.66;;;19.20
71640;BMP280;60912;48.968;10.124;2023-06-24T00:11:57;97518.53;;;19.20
71640;BMP280;60912;48.968;10.124;2023-06-24T00:14:24;97522.91;;;19.23
71640;BMP280;60912;48.968;10.124;2023-06-24T00:16:51;97516.50;;;19.30
71640;BMP280;60912;48.968;10.124;2023-06-24T00:19:21;97517.09;;;19.38
71640;BMP280;60912;48.968;10.124;2023-06-24T00:21:48;97520.78;;;19.41
71640;BMP280;60912;48.968;10.124;2023-06-24T00:24:13;97515.78;;;19.39
71640;BMP280;60912;48.968;10.124;2023-06-24T00:26:39;97513.28;;;19.43
71640;BMP280;60912;48.968;10.124;2023-06-24T00:29:04;97519.31;;;19.49
71640;BMP280;60912;48.968;10.124;2023-06-24T00:31:29;97526.25;;;19.48
71640;BMP280;60912;48.968;10.124;2023-06-24T00:33:55;97526.25;;;19.48
71640;BMP280;60912;48.968;10.124;2023-06-24T00:36:21;97529.91;;;19.41
71640;BMP280;60912;48.968;10.124;2023-06-24T00:38:46;97529.44;;;19.35
71640;BMP280;60912;48.968;10.124;2023-06-24T00:41:14;97526.50;;;19.33
71640;BMP280;60912;48.968;10.124;2023-06-24T00:43:41;97528.81;;;19.27
71640;BMP280;60912;48.968;10.124;2023-06-24T00:46:06;97519.84;;;19.29
71640;BMP280;60912;48.968;10.124;2023-06-24T00:48:32;97515.75;;;19.30
71640;BMP280;60912;48.968;10.124;2023-06-24T00:50:57;97520.44;;;19.27
71640;BMP280;60912;48.968;10.124;2023-06-24T00:53:23;97513.22;;;19.24
71640;BMP280;60912;48.968;10.124;2023-06-24T00:55:50;97509.41;;;19.19
71640;BMP280;60912;48.968;10.124;2023-06-24T00:58:16;97506.75;;;19.21
71640;BMP280;60912;48.968;10.124;2023-06-24T01:00:46;97508.78;;;19.21
71640;BMP280;60912;48.968;10.124;2023-06-24T01:03:12;97498.91;;;19.10
71640;BMP280;60912;48.968;10.124;2023-06-24T01:05:39;97504.63;;;19.03
71640;BMP280;60912;48.968;10.124;2023-06-24T01:08:06;97502.66;;;18.96
71640;BMP280;60912;48.968;10.124;2023-06-24T01:10:31;97503.06;;;18.83
71640;BMP280;60912;48.968;10.124;2023-06-24T01:12:57;97499.47;;;18.73
71640;BMP280;60912;48.968;10.124;2023-06-24T01:15:23;97502.38;;;18.65
71640;BMP280;60912;48.968;10.124;2023-06-24T01:17:56;97506.16;;;18.60
71640;BMP280;60912;48.968;10.124;2023-06-24T01:20:27;97507.47;;;18.59
71640;BMP280;60912;48.968;10.124;2023-06-24T01:28:41;97498.66;;;18.53
71640;BMP280;60912;48.968;10.124;2023-06-24T01:31:53;97490.53;;;18.47
71640;BMP280;60912;48.968;10.124;2023-06-24T01:36:47;97490.34;;;18.45
71640;BMP280;60912;48.968;10.124;2023-06-24T01:39:16;97492.28;;;18.43
71640;BMP280;60912;48.968;10.124;2023-06-24T01:41:47;97497.94;;;18.35
71640;BMP280;60912;48.968;10.124;2023-06-24T01:44:16;97491.56;;;18.25
71640;BMP280;60912;48.968;10.124;2023-06-24T01:46:48;97479.75;;;18.17
71640;BMP280;60912;48.968;10.124;2023-06-24T01:49:17;97484.66;;;18.09
71640;BMP280;60912;48.968;10.124;2023-06-24T01:51:44;97483.44;;;18.02
71640;BMP280;60912;48.968;10.124;2023-06-24T01:54:14;97482.72;;;17.85
71640;BMP280;60912;48.968;10.124;2023-06-24T01:56:41;97475.16;;;17.60
71640;BMP280;60912;48.968;10.124;2023-06-24T01:59:10;97474.22;;;17.41
71640;BMP280;60912;48.968;10.124;2023-06-24T02:01:37;97472.00;;;17.39
71640;BMP280;60912;48.968;10.124;2023-06-24T02:04:07;97471.75;;;17.45
71640;BMP280;60912;48.968;10.124;2023-06-24T02:06:34;97466.94;;;17.45
71640;BMP280;60912;48.968;10.124;2023-06-24T02:09:01;97462.09;;;17.46
71640;BMP280;60912;48.968;10.124;2023-06-24T02:11:28;97465.63;;;17.46
71640;BMP280;60912;48.968;10.124;2023-06-24T02:13:55;97461.34;;;17.45
71640;BMP280;60912;48.968;10.124;2023-06-24T02:16:21;97474.28;;;17.33
71640;BMP280;60912;48.968;10.124;2023-06-24T02:18:48;97466.41;;;17.22
71640;BMP280;60912;48.968;10.124;2023-06-24T02:21:17;97466.66;;;17.16
71640;BMP280;60912;48.968;10.124;2023-06-24T02:23:43;97467.38;;;17.17
71640;BMP280;60912;48.968;10.124;2023-06-24T02:26:09;97461.81;;;17.17
71640;BMP280;60912;48.968;10.124;2023-06-24T02:28:37;97457.75;;;17.10
71640;BMP280;60912;48.968;10.124;2023-06-24T02:31:03;97459.81;;;17.10
71640;BMP280;60912;48.968;10.124;2023-06-24T02:33:29;97460.00;;;17.12
71640;BMP280;60912;48.968;10.124;2023-06-24T02:35:54;97462.97;;;17.14
71640;BMP280;60912;48.968;10.124;2023-06-24T02:38:20;97455.56;;;17.09
71640;BMP280;60912;48.968;10.124;2023-06-24T02:40:45;97460.03;;;17.04
71640;BMP280;60912;48.968;10.124;2023-06-24T02:43:11;97459.34;;;17.04
71640;BMP280;60912;48.968;10.124;2023-06-24T02:45:36;97458.59;;;16.96
71640;BMP280;60912;48.968;10.124;2023-06-24T02:48:02;97458.59;;;16.96
71640;BMP280;60912;48.968;10.124;2023-06-24T02:50:28;97452.72;;;16.92
71640;BMP280;60912;48.968;10.124;2023-06-24T02:52:54;97468.91;;;16.86
71640;BMP280;60912;48.968;10.124;2023-06-24T02:55:20;97462.09;;;16.79
71640;BMP280;60912;48.968;10.124;2023-06-24T02:57:46;97470.47;;;16.72
71640;BMP280;60912;48.968;10.124;2023-06-24T03:00:13;97472.13;;;16.75
71640;BMP280;60912;48.968;10.124;2023-06-24T03:02:39;97471.56;;;16.76
71640;BMP280;60912;48.968;10.124;2023-06-24T03:05:06;97476.38;;;16.76
71640;BMP280;60912;48.968;10.124;2023-06-24T03:07:32;97470.47;;;16.72
71640;BMP280;60912;48.968;10.124;2023-06-24T03:10:02;97474.44;;;16.61
71640;BMP280;60912;48.968;10.124;2023-06-24T03:12:28;97482.84;;;16.53
71640;BMP280;60912;48.968;10.124;2023-06-24T03:14:54;97480.31;;;16.40
71640;BMP280;60912;48.968;10.124;2023-06-24T03:17:19;97480.56;;;16.27
71640;BMP280;60912;48.968;10.124;2023-06-24T03:19:44;97475.75;;;16.20
71640;BMP280;60912;48.968;10.124;2023-06-24T03:22:10;97486.34;;;16.14
71640;BMP280;60912;48.968;10.124;2023-06-24T03:24:35;97489.31;;;16.16
71640;BMP280;60912;48.968;10.124;2023-06-24T03:27:00;97490.19;;;16.18
71640;BMP280;60912;48.968;10.124;2023-06-24T03:29:26;97497.44;;;16.22
71640;BMP280;60912;48.968;10.124;2023-06-24T03:31:51;97499.44;;;16.29
71640;BMP280;60912;48.968;10.124;2023-06-24T03:34:17;97510.75;;;16.31
71640;BMP280;60912;48.968;10.124;2023-06-24T03:36:43;97500.91;;;16.37
71640;BMP280;60912;48.968;10.124;2023-06-24T03:39:08;97500.84;;;16.52
71640;BMP280;60912;48.968;10.124;2023-06-24T03:41:34;97493.91;;;16.61
71640;BMP280;60912;48.968;10.124;2023-06-24T03:43:59;97503.88;;;17.04
71640;BMP280;60912;48.968;10.124;2023-06-24T03:46:25;97496.00;;;17.77
71640;BMP280;60912;48.968;10.124;2023-06-24T03:48:51;97494.63;;;18.46
71640;BMP280;60912;48.968;10.124;2023-06-24T03:51:16;97496.41;;;18.78
71640;BMP280;60912;48.968;10.124;2023-06-24T03:53:42;97497.16;;;19.15
71640;BMP280;60912;48.968;10.124;2023-06-24T03:56:07;97501.38;;;19.71
71640;BMP280;60912;48.968;10.124;2023-06-24T03:58:32;97507.59;;;19.99
71640;BMP280;60912;48.968;10.124;2023-06-24T04:01:00;97506.22;;;20.38
71640;BMP280;60912;48.968;10.124;2023-06-24T04:03:25;97515.69;;;21.14
71640;BMP280;60912;48.968;10.124;2023-06-24T04:05:53;97515.66;;;21.87
71640;BMP280;60912;48.968;10.124;2023-06-24T04:08:18;97513.81;;;22.57
71640;BMP280;60912;48.968;10.124;2023-06-24T04:10:44;97521.25;;;23.11
71640;BMP280;60912;48.968;10.124;2023-06-24T04:13:09;97516.94;;;23.81
71640;BMP280;60912;48.968;10.124;2023-06-24T04:15:35;97528.69;;;24.53
71640;BMP280;60912;48.968;10.124;2023-06-24T04:18:00;97528.97;;;25.55
71640;BMP280;60912;48.968;10.124;2023-06-24T04:20:25;97529.94;;;26.49
71640;BMP280;60912;48.968;10.124;2023-06-24T04:22:51;97533.47;;;27.12
71640;BMP280;60912;48.968;10.124;2023-06-24T04:25:16;97529.97;;;27.13
71640;BMP280;60912;48.968;10.124;2023-06-24T04:27:42;97535.75;;;26.84
71640;BMP280;60912;48.968;10.124;2023-06-24T04:30:07;97530.75;;;27.16
71640;BMP280;60912;48.968;10.124;2023-06-24T04:32:33;97529.22;;;27.46
71640;BMP280;60912;48.968;10.124;2023-06-24T04:34:59;97523.13;;;28.44
71640;BMP280;60912;48.968;10.124;2023-06-24T04:37:28;97528.91;;;29.48
71640;BMP280;60912;48.968;10.124;2023-06-24T04:39:53;97521.63;;;30.10
71640;BMP280;60912;48.968;10.124;2023-06-24T04:42:19;97526.84;;;30.43
71640;BMP280;60912;48.968;10.124;2023-06-24T04:44:44;97533.44;;;30.50
71640;BMP280;60912;48.968;10.124;2023-06-24T04:47:09;97536.00;;;31.19
71640;BMP280;60912;48.968;10.124;2023-06-24T04:49:35;97533.19;;;31.78
71640;BMP280;60912;48.968;10.124;2023-06-24T04:52:01;97534.31;;;32.33
71640;BMP280;60912;48.968;10.124;2023-06-24T04:54:26;97532.09;;;32.63
71640;BMP280;60912;48.968;10.124;2023-06-24T04:56:52;97532.81;;;33.03
71640;BMP280;60912;48.968;10.124;2023-06-24T04:59:20;97530.66;;;33.47
71640;BMP280;60912;48.968;10.124;2023-06-24T05:01:46;97537.88;;;32.67
71640;BMP280;60912;48.968;10.124;2023-06-24T05:04:11;97533.91;;;32.84
71640;BMP280;60912;48.968;10.124;2023-06-24T05:06:36;97534.56;;;33.70
71640;BMP280;60912;48.968;10.124;2023-06-24T05:09:02;97532.09;;;34.58
71640;BMP280;60912;48.968;10.124;2023-06-24T05:11:27;97534.59;;;33.72
71640;BMP280;60912;48.968;10.124;2023-06-24T05:13:53;97539.63;;;33.26
71640;BMP280;60912;48.968;10.124;2023-06-24T05:16:18;97539.34;;;32.70
71640;BMP280;60912;48.968;10.124;2023-06-24T05:18:44;97540.50;;;32.57
71640;BMP280;60912;48.968;10.124;2023-06-24T05:21:10;97547.78;;;31.94
71640;BMP280;60912;48.968;10.124;2023-06-24T05:23:36;97541.38;;;31.07
71640;BMP280;60912;48.968;10.124;2023-06-24T05:26:01;97547.59;;;30.99
71640;BMP280;60912;48.968;10.124;2023-06-24T05:28:27;97537.69;;;30.25
71640;BMP280;60912;48.968;10.124;2023-06-24T05:30:52;97536.56;;;29.87
71640;BMP280;60912;48.968;10.124;2023-06-24T05:33:17;97546.59;;;29.25
71640;BMP280;60912;48.968;10.124;2023-06-24T05:35:43;97539.72;;;29.32
71640;BMP280;60912;48.968;10.124;2023-06-24T05:38:09;97545.38;;;29.73
71640;BMP280;60912;48.968;10.124;2023-06-24T05:40:34;97542.03;;;29.81
71640;BMP280;60912;48.968;10.124;2023-06-24T05:43:00;97551.56;;;29.68
71640;BMP280;60912;48.968;10.124;2023-06-24T05:45:26;97546.16;;;29.76
71640;BMP280;60912;48.968;10.124;2023-06-24T05:47:51;97546.41;;;29.84
71640;BMP280;60912;48.968;10.124;2023-06-24T05:50:16;97539.16;;;29.36
71640;BMP280;60912;48.968;10.124;2023-06-24T05:52:42;97545.16;;;29.24
71640;BMP280;60912;48.968;10.124;2023-06-24T05:55:07;97552.63;;;28.74
71640;BMP280;60912;48.968;10.124;2023-06-24T05:57:33;97545.19;;;28.85
71640;BMP280;60912;48.968;10.124;2023-06-24T05:59:58;97550.84;;;29.04
71640;BMP280;60912;48.968;10.124;2023-06-24T06:02:24;97552.03;;;28.78
71640;BMP280;60912;48.968;10.124;2023-06-24T06:04:50;97549.25;;;28.99
71640;BMP280;60912;48.968;10.124;2023-06-24T06:07:15;97545.31;;;29.08
71640;BMP280;60912;48.968;10.124;2023-06-24T06:09:41;97541.97;;;28.94
71640;BMP280;60912;48.968;10.124;2023-06-24T06:12:06;97546.16;;;29.32
71640;BMP280;60912;48.968;10.124;2023-06-24T06:14:32;97555.50;;;28.37
71640;BMP280;60912;48.968;10.124;2023-06-24T06:16:57;97547.00;;;28.37
71640;BMP280;60912;48.968;10.124;2023-06-24T06:19:23;97552.94;;;28.45
71640;BMP280;60912;48.968;10.124;2023-06-24T06:21:51;97561.44;;;28.25
71640;BMP280;60912;48.968;10.124;2023-06-24T06:24:17;97552.94;;;28.45
71640;BMP280;60912;48.968;10.124;2023-06-24T06:26:43;97551.56;;;28.26
71640;BMP280;60912;48.968;10.124;2023-06-24T06:29:09;97545.25;;;28.47
71640;BMP280;60912;48.968;10.124;2023-06-24T06:31:35;97540.38;;;29.30
71640;BMP280;60912;48.968;10.124;2023-06-24T06:34:00;97541.78;;;29.29
71640;BMP280;60912;48.968;10.124;2023-06-24T06:36:27;97541.16;;;29.11
71640;BMP280;60912;48.968;10.124;2023-06-24T06:38:52;97544.00;;;29.11
71640;BMP280;60912;48.968;10.124;2023-06-24T06:41:18;97548.19;;;29.52
71640;BMP280;60912;48.968;10.124;2023-06-24T06:43:49;97545.69;;;29.62
71640;BMP280;60912;48.968;10.124;2023-06-24T06:46:15;97545.03;;;29.63
71640;BMP280;60912;48.968;10.124;2023-06-24T06:48:42;97543.16;;;28.87
71640;BMP280;60912;48.968;10.124;2023-06-24T06:51:08;97546.84;;;29.11
71640;BMP280;60912;48.968;10.124;2023-06-24T06:53:33;97534.22;;;29.16
71640;BMP280;60912;48.968;10.124;2023-06-24T06:55:58;97541.84;;;28.90
71640;BMP280;60912;48.968;10.124;2023-06-24T06:58:24;97538.06;;;28.64
71640;BMP280;60912;48.968;10.124;2023-06-24T07:00:50;97533.53;;;29.38
71640;BMP280;60912;48.968;10.124;2023-06-24T07:03:15;97528.94;;;29.28
71640;BMP280;60912;48.968;10.124;2023-06-24T07:05:41;97538.59;;;29.19
71640;BMP280;60912;48.968;10.124;2023-06-24T07:08:06;97529.16;;;29.13
71640;BMP280;60912;48.968;10.124;2023-06-24T07:10:31;97537.19;;;28.99
71640;BMP280;60912;48.968;10.124;2023-06-24T07:12:57;97538.25;;;29.09
71640;BMP280;60912;48.968;10.124;2023-06-24T07:15:25;97544.50;;;29.25
71640;BMP280;60912;48.968;10.124;2023-06-24T07:17:51;97547.41;;;28.86
71640;BMP280;60912;48.968;10.124;2023-06-24T07:20:16;97541.75;;;29.08
71640;BMP280;60912;48.968;10.124;2023-06-24T07:22:41;97539.41;;;29.44
71640;BMP280;60912;48.968;10.124;2023-06-24T07:25:07;97541.25;;;29.35
71640;BMP280;60912;48.968;10.124;2023-06-24T07:27:32;97546.13;;;29.54
71640;BMP280;60912;48.968;10.124;2023-06-24T07:29:57;97545.56;;;29.16
71640;BMP280;60912;48.968;10.124;2023-06-24T07:32:23;97543.03;;;29.05
71640;BMP280;60912;48.968;10.124;2023-06-24T07:34:48;97540.13;;;29.66
71640;BMP280;60912;48.968;10.124;2023-06-24T07:37:14;97533.56;;;30.54
71640;BMP280;60912;48.968;10.124;2023-06-24T07:39:39;97536.53;;;30.34
71640;BMP280;60912;48.968;10.124;2023-06-24T07:42:05;97531.69;;;30.90
71640;BMP280;60912;48.968;10.124;2023-06-24T07:44:30;97538.75;;;31.44
71640;BMP280;60912;48.968;10.124;2023-06-24T07:46:55;97531.84;;;30.96
71640;BMP280;60912;48.968;10.124;2023-06-24T07:49:21;97535.41;;;29.96
71640;BMP280;60912;48.968;10.124;2023-06-24T07:51:46;97535.34;;;29.07
71640;BMP280;60912;48.968;10.124;2023-06-24T07:54:12;97536.28;;;29.79
71640;BMP280;60912;48.968;10.124;2023-06-24T07:56:37;97540.28;;;30.17
71640;BMP280;60912;48.968;10.124;2023-06-24T07:59:03;97548.00;;;30.13
71640;BMP280;60912;48.968;10.124;2023-06-24T08:01:28;97541.84;;;29.31
71640;BMP280;60912;48.968;10.124;2023-06-24T08:03:53;97534.44;;;29.87
71640;BMP280;60912;48.968;10.124;2023-06-24T08:06:19;97523.56;;;30.27
71640;BMP280;60912;48.968;10.124;2023-06-24T08:08:45;97525.84;;;30.58
71640;BMP280;60912;48.968;10.124;2023-06-24T08:11:12;97530.88;;;30.60
71640;BMP280;60912;48.968;10.124;2023-06-24T08:13:38;97534.06;;;30.23
71640;BMP280;60912;48.968;10.124;2023-06-24T08:16:03;97532.19;;;30.57
71640;BMP280;60912;48.968;10.124;2023-06-24T08:18:29;97532.06;;;30.77
71640;BMP280;60912;48.968;10.124;2023-06-24T08:20:54;97529.34;;;30.83
71640;BMP280;60912;48.968;10.124;2023-06-24T08:23:19;97525.47;;;29.97
71640;BMP280;60912;48.968;10.124;2023-06-24T08:25:45;97519.34;;;30.30
71640;BMP280;60912;48.968;10.124;2023-06-24T08:28:10;97520.41;;;30.43
71640;BMP280;60912;48.968;10.124;2023-06-24T08:30:36;97525.84;;;31.12
71640;BMP280;60912;48.968;10.124;2023-06-24T08:33:01;97522.34;;;31.41
71640;BMP280;60912;48.968;10.124;2023-06-24T08:35:27;97527.72;;;31.29
71640;BMP280;60912;48.968;10.124;2023-06-24T08:37:52;97518.69;;;31.68
71640;BMP280;60912;48.968;10.124;2023-06-24T08:40:18;97527.38;;;31.74
71640;BMP280;60912;48.968;10.124;2023-06-24T08:42:43;97522.41;;;31.17
71640;BMP280;60912;48.968;10.124;2023-06-24T08:45:09;97520.03;;;30.54
71640;BMP280;60912;48.968;10.124;2023-06-24T08:47:35;97519.94;;;29.79
71640;BMP280;60912;48.968;10.124;2023-06-24T08:50:11;97520.25;;;29.44
71640;BMP280;60912;48.968;10.124;2023-06-24T08:52:38;97516.91;;;28.30
71640;BMP280;60912;48.968;10.124;2023-06-24T08:55:05;97524.13;;;28.13
71640;BMP280;60912;48.968;10.124;2023-06-24T08:57:37;97526.88;;;27.93
71640;BMP280;60912;48.968;10.124;2023-06-24T09:00:03;97526.09;;;27.73
71640;BMP280;60912;48.968;10.124;2023-06-24T09:02:31;97525.72;;;27.30
71640;BMP280;60912;48.968;10.124;2023-06-24T09:04:58;97534.22;;;27.48
71640;BMP280;60912;48.968;10.124;2023-06-24T09:07:27;97520.56;;;28.13
71640;BMP280;60912;48.968;10.124;2023-06-24T09:09:55;97527.84;;;28.96
71640;BMP280;60912;48.968;10.124;2023-06-24T09:12:21;97526.47;;;29.39
71640;BMP280;60912;48.968;10.124;2023-06-24T09:14:50;97516.72;;;29.89
71640;BMP280;60912;48.968;10.124;2023-06-24T09:17:19;97520.88;;;30.33
71640;BMP280;60912;48.968;10.124;2023-06-24T09:19:48;97523.50;;;29.80
71640;BMP280;60912;48.968;10.124;2023-06-24T09:22:14;97520.31;;;29.68
71640;BMP280;60912;48.968;10.124;2023-06-24T09:24:43;97514.09;;;29.73
71640;BMP280;60912;48.968;10.124;2023-06-24T09:27:19;97513.00;;;30.08
71640;BMP280;60912;48.968;10.124;2023-06-24T09:29:45;97506.38;;;30.74
71640;BMP280;60912;48.968;10.124;2023-06-24T09:32:14;97507.31;;;30.83
71640;BMP280;60912;48.968;10.124;2023-06-24T09:34:40;97501.88;;;30.67
71640;BMP280;60912;48.968;10.124;2023-06-24T09:37:06;97503.47;;;31.00
71640;BMP280;60912;48.968;10.124;2023-06-24T09:39:39;97498.25;;;31.48
71640;BMP280;60912;48.968;10.124;2023-06-24T09:42:05;97487.72;;;31.55
71640;BMP280;60912;48.968;10.124;2023-06-24T09:44:34;97490.63;;;31.88
71640;BMP280;60912;48.968;10.124;2023-06-24T09:46:59;97488.41;;;31.53
71640;BMP280;60912;48.968;10.124;2023-06-24T09:49:25;97495.41;;;30.63
71640;BMP280;60912;48.968;10.124;2023-06-24T09:51:58;97491.13;;;29.89
71640;BMP280;60912;48.968;10.124;2023-06-24T09:54:32;97487.59;;;29.67
71640;BMP280;60912;48.968;10.124;2023-06-24T09:57:01;97479.94;;;29.95
71640;BMP280;60912;48.968;10.124;2023-06-24T09:59:27;97482.00;;;30.16
71640;BMP280;60912;48.968;10.124;2023-06-24T10:01:55;97475.81;;;30.24
71640;BMP280;60912;48.968;10.124;2023-06-24T10:04:24;97483.88;;;30.59
71640;BMP280;60912;48.968;10.124;2023-06-24T10:06:53;97477.84;;;31.28
71640;BMP280;60912;48.968;10.124;2023-06-24T10:09:19;97477.91;;;31.62
71640;BMP280;60912;48.968;10.124;2023-06-24T10:11:48;97471.16;;;31.47
71640;BMP280;60912;48.968;10.124;2023-06-24T10:14:16;97468.41;;;31.21
71640;BMP280;60912;48.968;10.124;2023-06-24T10:16:44;97471.66;;;31.69
71640;BMP280;60912;48.968;10.124;2023-06-24T10:19:09;97472.09;;;30.70
71640;BMP280;60912;48.968;10.124;2023-06-24T10:21:54;97468.06;;;30.02
71640;BMP280;60912;48.968;10.124;2023-06-24T10:24:29;97455.31;;;30.29
71640;BMP280;60912;48.968;10.124;2023-06-24T10:27:00;97455.97;;;30.79
71640;BMP280;60912;48.968;10.124;2023-06-24T10:29:36;97447.13;;;31.24
71640;BMP280;60912;48.968;10.124;2023-06-24T10:32:06;97448.69;;;30.46
71640;BMP280;60912;48.968;10.124;2023-06-24T10:34:34;97444.63;;;30.81
71640;BMP280;60912;48.968;10.124;2023-06-24T10:37:25;97445.69;;;30.68
71640;BMP280;60912;48.968;10.124;2023-06-24T10:42:27;97437.84;;;30.13
71640;BMP280;60912;48.968;10.124;2023-06-24T10:44:57;97440.03;;;30.17
71640;BMP280;60912;48.968;10.124;2023-06-24T10:47:26;97439.34;;;30.16
71640;BMP280;60912;48.968;10.124;2023-06-24T10:49:54;97435.69;;;29.43
71640;BMP280;60912;48.968;10.124;2023-06-24T10:52:21;97430.97;;;29.27
71640;BMP280;60912;48.968;10.124;2023-06-24T10:54:48;97430.38;;;29.55
71640;BMP280;60912;48.968;10.124;2023-06-24T10:57:14;97426.16;;;29.56
71640;BMP280;60912;48.968;10.124;2023-06-24T11:02:13;97408.38;;;30.02
71640;BMP280;60912;48.968;10.124;2023-06-24T11:04:52;97409.03;;;29.54
71640;BMP280;60912;48.968;10.124;2023-06-24T11:07:20;97406.56;;;30.13
71640;BMP280;60912;48.968;10.124;2023-06-24T11:09:54;97404.09;;;30.83
71640;BMP280;60912;48.968;10.124;2023-06-24T11:12:28;97399.50;;;31.27
71640;BMP280;60912;48.968;10.124;2023-06-24T11:14:57;97395.50;;;31.40
71640;BMP280;60912;48.968;10.124;2023-06-24T11:17:23;97399.56;;;31.31
71640;BMP280;60912;48.968;10.124;2023-06-24T11:19:48;97403.81;;;31.00
71640;BMP280;60912;48.968;10.124;2023-06-24T11:22:15;97391.34;;;30.84
71640;BMP280;60912;48.968;10.124;2023-06-24T11:24:40;97400.28;;;31.00
71640;BMP280;60912;48.968;10.124;2023-06-24T11:27:06;97404.06;;;31.10
71640;BMP280;60912;48.968;10.124;2023-06-24T11:29:33;97398.22;;;30.74
71640;BMP280;60912;48.968;10.124;2023-06-24T11:32:01;97390.00;;;31.16
71640;BMP280;60912;48.968;10.124;2023-06-24T11:34:27;97395.31;;;31.64
71640;BMP280;60912;48.968;10.124;2023-06-24T11:36:52;97392.25;;;31.22
71640;BMP280;60912;48.968;10.124;2023-06-24T11:39:25;97385.78;;;30.09
71640;BMP280;60912;48.968;10.124;2023-06-24T11:41:52;97381.81;;;29.45
71640;BMP280;60912;48.968;10.124;2023-06-24T11:44:21;97385.28;;;29.65
71640;BMP280;60912;48.968;10.124;2023-06-24T11:46:48;97380.81;;;30.35
71640;BMP280;60912;48.968;10.124;2023-06-24T11:49:14;97372.44;;;30.98
71640;BMP280;60912;48.968;10.124;2023-06-24T11:51:49;97371.59;;;31.55
71640;BMP280;60912;48.968;10.124;2023-06-24T11:54:18;97362.69;;;32.08
71640;BMP280;60912;48.968;10.124;2023-06-24T11:56:49;97365.50;;;32.46
71640;BMP280;60912;48.968;10.124;2023-06-24T12:01:45;97360.34;;;31.29
71640;BMP280;60912;48.968;10.124;2023-06-24T12:04:16;97361.22;;;30.74
71640;BMP280;60912;48.968;10.124;2023-06-24T12:06:42;97355.47;;;31.34
71640;BMP280;60912;48.968;10.124;2023-06-24T12:09:08;97354.94;;;31.10
71640;BMP280;60912;48.968;10.124;2023-06-24T12:11:34;97352.19;;;31.14
71640;BMP280;60912;48.968;10.124;2023-06-24T12:13:59;97349.78;;;31.68
71640;BMP280;60912;48.968;10.124;2023-06-24T12:16:24;97342.69;;;31.35
71640;BMP280;60912;48.968;10.124;2023-06-24T12:18:51;97336.78;;;30.95
71640;BMP280;60912;48.968;10.124;2023-06-24T12:21:17;97333.28;;;30.39
71640;BMP280;60912;48.968;10.124;2023-06-24T12:23:42;97331.06;;;30.63
71640;BMP280;60912;48.968;10.124;2023-06-24T12:26:07;97335.84;;;30.27
71640;BMP280;60912;48.968;10.124;2023-06-24T12:28:33;97327.28;;;30.85
71640;BMP280;60912;48.968;10.124;2023-06-24T12:30:58;97325.66;;;31.39
71640;BMP280;60912;48.968;10.124;2023-06-24T12:33:24;97327.72;;;31.34
71640;BMP280;60912;48.968;10.124;2023-06-24T12:35:49;97326.84;;;31.28
71640;BMP280;60912;48.968;10.124;2023-06-24T12:38:14;97310.81;;;31.44
71640;BMP280;60912;48.968;10.124;2023-06-24T12:40:41;97321.38;;;30.74
71640;BMP280;60912;48.968;10.124;2023-06-24T12:43:06;97322.00;;;30.41
71640;BMP280;60912;48.968;10.124;2023-06-24T12:45:31;97311.06;;;29.78
71640;BMP280;60912;48.968;10.124;2023-06-24T12:47:57;97323.31;;;29.36
71640;BMP280;60912;48.968;10.124;2023-06-24T12:50:22;97319.41;;;29.01
71640;BMP280;60912;48.968;10.124;2023-06-24T12:52:48;97318.69;;;29.24
71640;BMP280;60912;48.968;10.124;2023-06-24T12:55:13;97313.00;;;28.77
71640;BMP280;60912;48.968;10.124;2023-06-24T12:57:38;97311.66;;;28.80
71640;BMP280;60912;48.968;10.124;2023-06-24T13:00:08;97306.59;;;28.77
71640;BMP280;60912;48.968;10.124;2023-06-24T13:02:34;97308.94;;;28.62
71640;BMP280;60912;48.968;10.124;2023-06-24T13:05:00;97317.53;;;28.64
71640;BMP280;60912;48.968;10.124;2023-06-24T13:07:25;97313.28;;;29.32
71640;BMP280;60912;48.968;10.124;2023-06-24T13:09:51;97308.06;;;29.01
71640;BMP280;60912;48.968;10.124;2023-06-24T13:12:16;97302.88;;;29.41
71640;BMP280;60912;48.968;10.124;2023-06-24T13:14:42;97305.94;;;29.98
71640;BMP280;60912;48.968;10.124;2023-06-24T13:17:07;97303.88;;;30.29
71640;BMP280;60912;48.968;10.124;2023-06-24T13:19:34;97289.38;;;30.46
71640;BMP280;60912;48.968;10.124;2023-06-24T13:21:59;97292.69;;;30.37
71640;BMP280;60912;48.968;10.124;2023-06-24T13:24:25;97295.22;;;30.82
71640;BMP280;60912;48.968;10.124;2023-06-24T13:26:51;97285.56;;;31.27
71640;BMP280;60912;48.968;10.124;2023-06-24T13:29:16;97289.47;;;30.78
71640;BMP280;60912;48.968;10.124;2023-06-24T13:31:42;97298.09;;;30.54
71640;BMP280;60912;48.968;10.124;2023-06-24T13:34:07;97293.38;;;29.82
71640;BMP280;60912;48.968;10.124;2023-06-24T13:36:37;97289.81;;;29.56
71640;BMP280;60912;48.968;10.124;2023-06-24T13:39:05;97295.56;;;29.10
71640;BMP280;60912;48.968;10.124;2023-06-24T13:41:31;97286.97;;;28.85
71640;BMP280;60912;48.968;10.124;2023-06-24T13:44:05;97293.25;;;29.28
71640;BMP280;60912;48.968;10.124;2023-06-24T13:46:31;97292.38;;;29.97
71640;BMP280;60912;48.968;10.124;2023-06-24T13:48:58;97284.53;;;30.23
71640;BMP280;60912;48.968;10.124;2023-06-24T13:51:24;97274.63;;;30.84
71640;BMP280;60912;48.968;10.124;2023-06-24T13:53:50;97271.97;;;31.25
71640;BMP280;60912;48.968;10.124;2023-06-24T13:56:17;97262.34;;;31.80
71640;BMP280;60912;48.968;10.124;2023-06-24T13:58:43;97258.78;;;31.44
71640;BMP280;60912;48.968;10.124;2023-06-24T14:01:08;97270.16;;;31.78
71640;BMP280;60912;48.968;10.124;2023-06-24T14:03:33;97264.41;;;32.13
71640;BMP280;60912;48.968;10.124;2023-06-24T14:05:59;97264.19;;;32.01
71640;BMP280;60912;48.968;10.124;2023-06-24T14:08:27;97256.25;;;31.58
71640;BMP280;60912;48.968;10.124;2023-06-24T14:10:54;97260.09;;;31.37